Terminal Aerodrome Forecast
Issued by NWS

Home | Current Version | Previous Version | Graphics & Text | Print | Product List | Glossary On
Versions: 1 2 3 4 5 6 7 8 9 10 11 12 13 14
553
FTUS43 KBIS 111142
TAFMOT
TAF
KMOT 111142Z 1112/1212 04005KT 3SM -SN OVC035
     FM111600 33005KT P6SM BKN035
     FM111800 30008KT P6SM SCT045
     FM112200 26006KT P6SM SCT040
     FM120500 25008KT P6SM BKN035=

USA.gov is the U.S. government's official web portal to all federal, state and local government web resources and services.